createdAt,value
2024-05-09T00:00:39.402Z,17.4
2024-05-09T00:01:35.523Z,17.3
2024-05-09T00:02:35.494Z,17.3
2024-05-09T00:04:35.468Z,17.3
2024-05-09T00:05:35.980Z,17.4
2024-05-09T00:06:35.431Z,17.3
2024-05-09T00:07:35.444Z,17.3
2024-05-09T00:08:35.599Z,17.3
2024-05-09T00:09:35.440Z,17.3
2024-05-09T00:10:38.046Z,17.3
2024-05-09T00:11:35.521Z,17.4
2024-05-09T00:12:35.481Z,17.5
2024-05-09T00:14:35.558Z,17.2
2024-05-09T00:15:36.056Z,17.3
2024-05-09T00:16:35.500Z,17.4
2024-05-09T00:18:35.635Z,17.3
2024-05-09T00:20:39.269Z,17.1
2024-05-09T00:22:35.441Z,17.3
2024-05-09T00:23:35.515Z,17.3
2024-05-09T00:24:35.450Z,17.3
2024-05-09T00:25:35.728Z,17.3
2024-05-09T00:26:35.472Z,17.3
2024-05-09T00:28:35.496Z,17.1
2024-05-09T00:29:35.475Z,17.2
2024-05-09T00:31:35.519Z,17.1
2024-05-09T00:32:35.555Z,17.2
2024-05-09T00:33:35.586Z,17.1
2024-05-09T00:34:35.474Z,17.1
2024-05-09T00:36:35.495Z,17.1
2024-05-09T00:37:35.459Z,17.1
2024-05-09T00:38:35.623Z,17.1
2024-05-09T00:39:35.500Z,17
2024-05-09T00:41:35.558Z,17.1
2024-05-09T00:42:35.455Z,17.1
2024-05-09T00:43:35.497Z,17
2024-05-09T00:44:36.582Z,17.3
2024-05-09T00:45:35.467Z,17.2
2024-05-09T00:46:35.477Z,17.1
2024-05-09T00:47:35.546Z,17.1
2024-05-09T00:48:35.656Z,17.1
2024-05-09T00:49:35.681Z,17
2024-05-09T00:50:37.416Z,17
2024-05-09T00:51:35.457Z,17.1
2024-05-09T00:52:35.467Z,17.1
2024-05-09T00:53:35.522Z,17
2024-05-09T00:54:35.459Z,17
2024-05-09T00:55:35.655Z,17
2024-05-09T00:56:35.544Z,17
2024-05-09T00:57:35.466Z,16.9
2024-05-09T00:58:35.524Z,16.9
2024-05-09T00:59:35.585Z,17
2024-05-09T01:01:35.533Z,16.9
2024-05-09T01:02:35.599Z,17
2024-05-09T01:03:35.764Z,17
2024-05-09T01:07:35.481Z,16.9
2024-05-09T01:08:35.619Z,16.9
2024-05-09T01:09:35.469Z,16.9
2024-05-09T01:10:36.474Z,17
2024-05-09T01:11:35.548Z,16.9
2024-05-09T01:12:35.644Z,17
2024-05-09T01:13:35.512Z,17
2024-05-09T01:14:35.620Z,17.1
2024-05-09T01:16:35.542Z,16.9
2024-05-09T01:17:35.645Z,16.8
2024-05-09T01:18:35.687Z,16.8
2024-05-09T01:20:41.733Z,16.9
2024-05-09T01:21:35.514Z,16.9
2024-05-09T01:23:35.579Z,16.9
2024-05-09T01:24:35.490Z,16.9
2024-05-09T01:26:35.548Z,16.8
2024-05-09T01:27:35.494Z,16.8
2024-05-09T01:28:35.519Z,16.8
2024-05-09T01:29:35.489Z,16.8
2024-05-09T01:30:37.451Z,16.8
2024-05-09T01:31:35.524Z,16.9
2024-05-09T01:32:35.580Z,16.8
2024-05-09T01:33:35.628Z,16.8
2024-05-09T01:34:35.492Z,16.8
2024-05-09T01:36:35.479Z,16.8
2024-05-09T01:37:35.494Z,16.8
2024-05-09T01:38:35.681Z,16.8
2024-05-09T01:39:35.476Z,16.8
2024-05-09T01:40:38.852Z,16.8
2024-05-09T01:41:35.577Z,16.8
2024-05-09T01:42:35.486Z,16.9
2024-05-09T01:43:35.476Z,17
2024-05-09T01:44:35.588Z,16.8
2024-05-09T01:45:35.482Z,16.7
2024-05-09T01:46:35.545Z,16.6
2024-05-09T01:47:35.702Z,16.8
2024-05-09T01:49:35.684Z,16.7
2024-05-09T01:50:39.807Z,16.7
2024-05-09T01:51:35.500Z,16.7
2024-05-09T01:52:35.595Z,16.7
2024-05-09T01:54:35.488Z,16.7
2024-05-09T01:55:35.473Z,16.6
2024-05-09T01:56:35.537Z,16.7
2024-05-09T01:57:35.479Z,16.7
2024-05-09T01:58:35.503Z,16.6
2024-05-09T01:59:35.555Z,16.5
2024-05-09T02:00:40.057Z,16.5
2024-05-09T02:01:55.586Z,16.6
2024-05-09T02:03:35.702Z,16.6
2024-05-09T02:04:35.551Z,16.6
2024-05-09T02:05:35.762Z,16.5
2024-05-09T02:06:35.498Z,16.5
2024-05-09T02:07:35.505Z,16.5
2024-05-09T02:08:35.572Z,16.5
2024-05-09T02:09:35.490Z,16.5
2024-05-09T02:11:35.602Z,16.5
2024-05-09T02:12:35.501Z,16.5
2024-05-09T02:13:35.509Z,16.5
2024-05-09T02:14:35.554Z,16.5
2024-05-09T02:15:35.491Z,16.7
2024-05-09T02:16:35.508Z,16.5
2024-05-09T02:17:35.629Z,16.4
2024-05-09T02:18:35.559Z,16.5
2024-05-09T02:19:35.609Z,16.5
2024-05-09T02:20:36.903Z,16.5
2024-05-09T02:22:35.497Z,16.5
2024-05-09T02:23:35.568Z,16.5
2024-05-09T02:24:35.503Z,16.6
2024-05-09T02:25:35.552Z,16.6
2024-05-09T02:26:35.600Z,16.7
2024-05-09T02:28:35.512Z,16.5
2024-05-09T02:29:35.649Z,16.5
2024-05-09T02:30:40.067Z,16.5
2024-05-09T02:31:35.546Z,16.5
2024-05-09T02:32:35.765Z,16.5
2024-05-09T02:33:35.784Z,16.4
2024-05-09T02:34:35.538Z,16.4
2024-05-09T02:35:35.687Z,16.5
2024-05-09T02:37:35.509Z,16.6
2024-05-09T02:38:35.709Z,16.5
2024-05-09T02:39:35.510Z,16.4
2024-05-09T02:40:38.294Z,16.5
2024-05-09T02:42:35.500Z,16.4
2024-05-09T02:43:35.557Z,16.3
2024-05-09T02:44:35.648Z,16.3
2024-05-09T02:45:35.566Z,16.4
2024-05-09T02:46:35.559Z,16.4
2024-05-09T02:48:35.575Z,16.4
2024-05-09T02:49:35.651Z,16.4
2024-05-09T02:50:39.033Z,16.5
2024-05-09T02:51:35.550Z,16.4
2024-05-09T02:52:35.566Z,16.5
2024-05-09T02:54:35.531Z,16.5
2024-05-09T02:55:35.552Z,16.5
2024-05-09T02:56:35.567Z,16.4
2024-05-09T02:57:35.514Z,16.5
2024-05-09T02:58:35.515Z,16.5
2024-05-09T02:59:35.599Z,16.5
2024-05-09T03:00:39.640Z,16.5
2024-05-09T03:02:35.608Z,16.3
2024-05-09T03:03:35.682Z,16.4
2024-05-09T03:04:35.668Z,16.3
2024-05-09T03:06:35.563Z,16.3
2024-05-09T03:07:35.531Z,16.2
2024-05-09T03:08:35.629Z,16.4
2024-05-09T03:09:35.532Z,16.3
2024-05-09T03:10:37.808Z,16.4
2024-05-09T03:11:35.649Z,16.2
2024-05-09T03:12:37.893Z,16.2
2024-05-09T03:13:35.522Z,16.3
2024-05-09T03:14:35.679Z,16.2
2024-05-09T03:16:35.519Z,16.2
2024-05-09T03:17:35.872Z,16.4
2024-05-09T03:18:35.754Z,16.3
2024-05-09T03:19:35.599Z,16.3
2024-05-09T03:20:36.747Z,16.4
2024-05-09T03:22:35.510Z,16.4
2024-05-09T03:23:35.541Z,16.3
2024-05-09T03:24:35.581Z,16.2
2024-05-09T03:25:35.530Z,16.1
2024-05-09T03:26:35.608Z,16.2
2024-05-09T03:27:35.575Z,16.2
2024-05-09T03:28:35.580Z,16.1
2024-05-09T03:30:40.975Z,16
2024-05-09T03:31:35.635Z,16.2
2024-05-09T03:32:35.741Z,16.2
2024-05-09T03:34:35.568Z,16.1
2024-05-09T03:35:35.659Z,16
2024-05-09T03:36:35.533Z,16.2
2024-05-09T03:37:35.531Z,16.2
2024-05-09T03:38:35.649Z,16
2024-05-09T03:40:35.579Z,16.1
2024-05-09T03:41:35.686Z,16.1
2024-05-09T03:42:35.548Z,16.2
2024-05-09T03:43:35.553Z,16.1
2024-05-09T03:44:35.620Z,16.2
2024-05-09T03:45:35.605Z,16.1
2024-05-09T03:46:35.593Z,16
2024-05-09T03:48:35.678Z,15.9
2024-05-09T03:49:35.695Z,16
2024-05-09T03:51:35.557Z,16
2024-05-09T03:52:35.558Z,15.9
2024-05-09T03:53:35.724Z,16
2024-05-09T03:54:35.550Z,16.1
2024-05-09T03:56:35.666Z,16
2024-05-09T03:57:35.552Z,15.9
2024-05-09T03:58:35.583Z,15.9
2024-05-09T03:59:35.581Z,16
2024-05-09T04:00:38.745Z,15.9
2024-05-09T04:02:35.704Z,16.1
2024-05-09T04:03:35.698Z,15.9
2024-05-09T04:05:35.750Z,15.9
2024-05-09T04:07:35.593Z,16
2024-05-09T04:08:35.699Z,16.1
2024-05-09T04:10:35.880Z,16
2024-05-09T04:11:35.630Z,16.1
2024-05-09T04:12:35.647Z,16.2
2024-05-09T04:14:35.663Z,16
2024-05-09T04:15:35.554Z,16
2024-05-09T04:16:35.564Z,16.1
2024-05-09T04:17:35.880Z,15.9
2024-05-09T04:18:35.649Z,16
2024-05-09T04:19:35.646Z,16.2
2024-05-09T04:21:35.543Z,16.1
2024-05-09T04:22:35.570Z,16
2024-05-09T04:24:35.554Z,16
2024-05-09T04:25:35.584Z,16
2024-05-09T04:26:35.628Z,16.2
2024-05-09T04:27:35.570Z,16.1
2024-05-09T04:28:35.604Z,16.2
2024-05-09T04:29:35.668Z,16.3
2024-05-09T04:31:35.604Z,16.1
2024-05-09T04:32:35.638Z,16.1
2024-05-09T04:33:35.883Z,16.2
2024-05-09T04:35:35.570Z,16.2
2024-05-09T04:36:35.583Z,16.3
2024-05-09T04:37:35.573Z,16.3
2024-05-09T04:39:35.561Z,16.2
2024-05-09T04:40:37.169Z,16.4
2024-05-09T04:42:35.568Z,16.2
2024-05-09T04:43:35.614Z,16.2
2024-05-09T04:44:35.624Z,16.3
2024-05-09T04:46:35.577Z,16.3
2024-05-09T04:47:35.776Z,16.2
2024-05-09T04:48:35.679Z,16.2
2024-05-09T04:49:35.782Z,16.3
2024-05-09T04:50:38.587Z,16.3
2024-05-09T04:51:35.561Z,16.4
2024-05-09T04:52:35.565Z,16.3
2024-05-09T04:53:35.676Z,16.2
2024-05-09T04:54:36.732Z,16.2
2024-05-09T04:55:35.567Z,16.2
2024-05-09T04:56:35.605Z,16.2
2024-05-09T04:57:35.595Z,16.2
2024-05-09T04:58:35.628Z,16.3
2024-05-09T04:59:35.643Z,16.4
2024-05-09T05:00:37.916Z,16.4
2024-05-09T05:01:35.754Z,16.5
2024-05-09T05:02:35.628Z,16.4
2024-05-09T05:03:35.832Z,16.6
2024-05-09T05:04:35.669Z,16.6
2024-05-09T05:05:35.635Z,16.5
2024-05-09T05:06:35.614Z,16.5
2024-05-09T05:08:35.649Z,16.3
2024-05-09T05:09:35.628Z,16.3
2024-05-09T05:11:35.596Z,16.4
2024-05-09T05:12:35.674Z,16.4
2024-05-09T05:14:35.705Z,16.4
2024-05-09T05:15:35.634Z,16.5
2024-05-09T05:17:35.819Z,16.4
2024-05-09T05:18:35.735Z,16.4
2024-05-09T05:19:35.823Z,16.4
2024-05-09T05:21:35.582Z,16.7
2024-05-09T05:22:35.582Z,16.6
2024-05-09T05:24:35.618Z,16.7
2024-05-09T05:25:35.585Z,16.8
2024-05-09T05:26:35.621Z,16.8
2024-05-09T05:27:35.605Z,16.8
2024-05-09T05:29:35.723Z,16.7
2024-05-09T05:30:35.686Z,16.8
2024-05-09T05:31:35.635Z,16.8
2024-05-09T05:33:35.779Z,16.8
2024-05-09T05:34:35.584Z,16.7
2024-05-09T05:35:35.638Z,16.7
2024-05-09T05:36:35.588Z,16.8
2024-05-09T05:37:35.596Z,16.8
2024-05-09T05:38:35.627Z,16.9
2024-05-09T05:39:35.573Z,16.9
2024-05-09T05:40:37.785Z,17
2024-05-09T05:41:35.650Z,17
2024-05-09T05:43:35.589Z,17.1
2024-05-09T05:44:35.615Z,17
2024-05-09T05:45:35.594Z,17
2024-05-09T05:46:35.586Z,17.1
2024-05-09T05:47:35.729Z,17
2024-05-09T05:48:35.756Z,17
2024-05-09T05:49:35.640Z,17.2
2024-05-09T05:50:37.714Z,17.1
2024-05-09T05:52:35.599Z,17.3
2024-05-09T05:53:35.864Z,17.2
2024-05-09T05:55:35.604Z,17.1
2024-05-09T05:56:35.732Z,17.2
2024-05-09T05:57:35.612Z,17.2
2024-05-09T05:58:35.661Z,17.2
2024-05-09T06:00:39.007Z,17.3
2024-05-09T06:01:35.693Z,17.3
2024-05-09T06:03:35.688Z,17.3
2024-05-09T06:04:35.654Z,17.4
2024-05-09T06:05:35.763Z,17.3
2024-05-09T06:07:35.613Z,17.4
2024-05-09T06:09:35.638Z,17.4
2024-05-09T06:10:39.274Z,17.4
2024-05-09T06:11:35.656Z,17.3
2024-05-09T06:12:35.617Z,17.4
2024-05-09T06:13:35.617Z,17.4
2024-05-09T06:14:35.686Z,17.5
2024-05-09T06:15:35.651Z,17.5
2024-05-09T06:16:35.637Z,17.5
2024-05-09T06:17:35.886Z,17.5
2024-05-09T06:18:35.880Z,17.4
2024-05-09T06:19:35.752Z,17.3
2024-05-09T06:20:37.964Z,17.3
2024-05-09T06:21:35.610Z,17.3
2024-05-09T06:22:35.612Z,17.5
2024-05-09T06:23:35.825Z,17.4
2024-05-09T06:24:35.617Z,17.3
2024-05-09T06:26:35.718Z,17.4
2024-05-09T06:27:35.637Z,17.5
2024-05-09T06:28:35.600Z,17.5
2024-05-09T06:29:35.680Z,17.6
2024-05-09T06:30:39.515Z,17.6
2024-05-09T06:31:35.623Z,17.6
2024-05-09T06:33:36.003Z,17.6
2024-05-09T06:34:35.662Z,17.5
2024-05-09T06:36:35.623Z,17.6
2024-05-09T06:37:35.622Z,17.6
2024-05-09T06:38:35.733Z,17.6
2024-05-09T06:40:38.807Z,17.8
2024-05-09T06:42:35.598Z,17.7
2024-05-09T06:43:35.608Z,17.6
2024-05-09T06:44:35.693Z,17.7
2024-05-09T06:45:35.619Z,17.6
2024-05-09T06:46:35.627Z,17.5
2024-05-09T06:47:35.747Z,17.6
2024-05-09T06:48:35.830Z,17.7
2024-05-09T06:50:38.261Z,17.6
2024-05-09T06:51:35.622Z,17.6
2024-05-09T06:53:35.756Z,17.6
2024-05-09T06:54:35.643Z,17.7
2024-05-09T06:55:35.639Z,17.6
2024-05-09T06:56:35.658Z,17.6
2024-05-09T06:57:36.707Z,17.6
2024-05-09T06:58:35.682Z,17.5
2024-05-09T06:59:35.769Z,17.6
2024-05-09T07:01:35.801Z,17.7
2024-05-09T07:02:35.898Z,17.7
2024-05-09T07:03:35.722Z,17.8
2024-05-09T07:04:35.857Z,17.6
2024-05-09T07:05:35.713Z,17.9
2024-05-09T07:07:35.637Z,17.7
2024-05-09T07:08:35.818Z,17.6
2024-05-09T07:09:35.693Z,17.8
2024-05-09T07:10:36.572Z,17.8
2024-05-09T07:11:35.889Z,17.7
2024-05-09T07:12:35.684Z,17.6
2024-05-09T07:14:37.993Z,17.8
2024-05-09T07:15:35.674Z,17.7
2024-05-09T07:16:35.640Z,17.6
2024-05-09T07:18:36.073Z,17.7
2024-05-09T07:19:35.735Z,17.6
2024-05-09T07:20:35.822Z,17.7
2024-05-09T07:22:35.646Z,17.8
2024-05-09T07:23:35.746Z,17.8
2024-05-09T07:24:35.686Z,17.8
2024-05-09T07:25:35.687Z,17.8
2024-05-09T07:26:35.775Z,17.7
2024-05-09T07:27:35.690Z,17.8
2024-05-09T07:28:35.698Z,17.7
2024-05-09T07:29:38.297Z,17.8
2024-05-09T07:31:35.708Z,17.9
2024-05-09T07:33:35.778Z,17.9
2024-05-09T07:34:35.881Z,17.9
2024-05-09T07:36:35.647Z,18.1
2024-05-09T07:37:35.707Z,17.9
2024-05-09T07:38:35.687Z,17.8
2024-05-09T07:40:36.955Z,17.9
2024-05-09T07:41:35.714Z,18
2024-05-09T07:42:35.653Z,18
2024-05-09T07:43:35.671Z,18
2024-05-09T07:44:35.793Z,18.1
2024-05-09T07:48:57.738Z,18
2024-05-09T07:50:34.397Z,18
2024-05-09T07:53:14.136Z,18
2024-05-09T07:53:33.269Z,18.1
2024-05-09T07:53:42.719Z,18.1
2024-05-09T07:54:35.858Z,18.1
2024-05-09T07:56:35.752Z,18.1
2024-05-09T07:57:35.717Z,18.2
2024-05-09T07:58:35.663Z,18.1
2024-05-09T08:00:35.789Z,18.1
2024-05-09T08:01:35.844Z,18.1
2024-05-09T08:02:35.685Z,18.1
2024-05-09T08:03:35.816Z,18.1
2024-05-09T08:04:35.824Z,18.1
2024-05-09T08:05:35.748Z,18
2024-05-09T08:07:35.703Z,18.1
2024-05-09T08:08:35.710Z,18.1
2024-05-09T08:09:38.008Z,18.2
2024-05-09T08:10:35.800Z,18.1
2024-05-09T08:11:35.716Z,18.2
2024-05-09T08:12:35.703Z,18.1
2024-05-09T08:13:35.699Z,18.2
2024-05-09T08:14:35.715Z,18.3
2024-05-09T08:15:35.694Z,18.3
2024-05-09T08:17:35.747Z,18.3
2024-05-09T08:18:35.934Z,18.2
2024-05-09T08:19:35.733Z,18.2
2024-05-09T08:20:35.721Z,18.3
2024-05-09T08:21:35.733Z,18.2
2024-05-09T08:22:35.668Z,18.2
2024-05-09T08:24:35.752Z,18.3
2024-05-09T08:25:35.661Z,18.3
2024-05-09T08:26:35.678Z,18.3
2024-05-09T08:27:35.720Z,18.5
2024-05-09T08:28:35.722Z,18.4
2024-05-09T08:30:37.546Z,18.4
2024-05-09T08:31:35.763Z,18.5
2024-05-09T08:32:35.768Z,18.4
2024-05-09T08:34:35.787Z,18.6
2024-05-09T08:36:35.763Z,18.5
2024-05-09T08:37:38.804Z,18.6
2024-05-09T08:38:35.672Z,18.5
2024-05-09T08:39:35.678Z,18.5
2024-05-09T08:40:37.506Z,18.5
2024-05-09T08:41:35.682Z,18.5
2024-05-09T08:42:35.775Z,18.5
2024-05-09T08:44:35.669Z,18.5
2024-05-09T08:45:35.855Z,18.6
2024-05-09T08:46:35.761Z,18.5
2024-05-09T08:48:35.962Z,18.8
2024-05-09T08:49:37.669Z,18.9
2024-05-09T08:50:38.986Z,18.7
2024-05-09T08:51:35.681Z,18.7
2024-05-09T08:52:35.692Z,18.7
2024-05-09T08:53:35.678Z,18.7
2024-05-09T08:55:38.166Z,18.7
2024-05-09T08:56:35.719Z,18.7
2024-05-09T08:57:35.771Z,18.7
2024-05-09T08:58:35.694Z,18.6
2024-05-09T09:00:37.413Z,18.7
2024-05-09T09:01:37.255Z,18.7
2024-05-09T09:02:35.795Z,18.8
2024-05-09T09:03:36.068Z,18.8
2024-05-09T09:05:35.824Z,18.8
2024-05-09T09:06:35.787Z,18.8
2024-05-09T09:07:35.722Z,18.8
2024-05-09T09:08:35.659Z,18.8
2024-05-09T09:09:35.730Z,18.8
2024-05-09T09:10:36.003Z,18.8
2024-05-09T09:12:35.739Z,18.8
2024-05-09T09:13:35.728Z,18.8
2024-05-09T09:14:35.696Z,18.8
2024-05-09T09:15:35.788Z,18.8
2024-05-09T09:16:35.706Z,18.9
2024-05-09T09:17:35.798Z,18.9
2024-05-09T09:19:35.849Z,18.9
2024-05-09T09:20:37.060Z,18.9
2024-05-09T09:21:35.780Z,19
2024-05-09T09:22:35.705Z,19
2024-05-09T09:23:35.723Z,19
2024-05-09T09:25:35.704Z,19.2
2024-05-09T09:26:35.727Z,19
2024-05-09T09:28:35.696Z,19.3
2024-05-09T09:29:35.749Z,19.3
2024-05-09T09:30:37.953Z,19.2
2024-05-09T09:32:35.822Z,19.1
2024-05-09T09:33:36.455Z,19.1
2024-05-09T09:34:35.749Z,19
2024-05-09T09:35:35.703Z,19.1
2024-05-09T09:36:35.762Z,19
2024-05-09T09:37:35.700Z,19.1
2024-05-09T09:38:35.709Z,19.1
2024-05-09T09:39:35.741Z,19.1
2024-05-09T09:40:38.729Z,19
2024-05-09T09:41:35.751Z,19
2024-05-09T09:43:35.710Z,19.1
2024-05-09T09:44:39.466Z,19
2024-05-09T09:45:35.748Z,19.1
2024-05-09T09:46:35.770Z,19.1
2024-05-09T09:48:35.791Z,19.1
2024-05-09T09:49:35.800Z,19.1
2024-05-09T09:50:35.779Z,19.2
2024-05-09T09:51:35.841Z,19.2
2024-05-09T09:52:35.715Z,19.2
2024-05-09T09:54:35.787Z,19.5
2024-05-09T09:55:35.742Z,19.4
2024-05-09T09:56:35.712Z,19.4
2024-05-09T09:57:35.800Z,19.3
2024-05-09T09:58:35.784Z,19.4
2024-05-09T09:59:35.724Z,19.3
2024-05-09T10:00:35.922Z,19.4
2024-05-09T10:01:36.043Z,19.3
2024-05-09T10:02:35.795Z,19.4
2024-05-09T10:03:36.025Z,19.3
2024-05-09T10:05:35.957Z,19.3
2024-05-09T10:06:35.763Z,19.3
2024-05-09T10:07:35.712Z,19.3
2024-05-09T10:08:35.724Z,19.3
2024-05-09T10:10:36.049Z,19.3
2024-05-09T10:11:42.080Z,19.3
2024-05-09T10:12:35.978Z,19.3
2024-05-09T10:14:35.717Z,19.3
2024-05-09T10:15:35.793Z,19.3
2024-05-09T10:16:35.831Z,19.3
2024-05-09T10:18:35.877Z,19.3
2024-05-09T10:19:35.839Z,19.3
2024-05-09T10:20:35.837Z,19.3
2024-05-09T10:22:35.721Z,19.3
2024-05-09T10:23:35.723Z,19.3
2024-05-09T10:24:35.852Z,19.3
2024-05-09T10:25:35.731Z,19.3
2024-05-09T10:26:35.784Z,19.4
2024-05-09T10:27:35.817Z,19.4
2024-05-09T10:28:36.092Z,19.4
2024-05-09T10:29:35.748Z,19.4
2024-05-09T10:31:35.765Z,19.3
2024-05-09T10:32:35.764Z,19.5
2024-05-09T10:34:35.804Z,19.4
2024-05-09T10:35:35.728Z,19.4
2024-05-09T10:36:35.814Z,19.4
2024-05-09T10:37:35.809Z,19.4
2024-05-09T10:39:35.796Z,19.5
2024-05-09T10:40:35.747Z,19.5
2024-05-09T10:41:35.731Z,19.5
2024-05-09T10:42:35.746Z,19.5
2024-05-09T10:44:35.760Z,19.6
2024-05-09T10:45:35.863Z,19.5
2024-05-09T10:46:35.736Z,19.6
2024-05-09T10:47:35.839Z,19.6
2024-05-09T10:49:35.745Z,19.6
2024-05-09T10:50:35.885Z,19.6
2024-05-09T10:51:35.822Z,19.6
2024-05-09T10:53:35.740Z,19.5
2024-05-09T10:54:35.758Z,19.6
2024-05-09T10:55:35.774Z,19.6
2024-05-09T10:57:35.738Z,19.6
2024-05-09T10:58:35.739Z,19.6
2024-05-09T10:59:35.742Z,19.7
2024-05-09T11:00:36.691Z,19.7
2024-05-09T11:01:35.830Z,19.7
2024-05-09T11:02:35.859Z,19.7
2024-05-09T11:03:36.419Z,19.7
2024-05-09T11:05:35.910Z,19.7
2024-05-09T11:06:35.830Z,19.7
2024-05-09T11:08:35.771Z,19.7
2024-05-09T11:09:35.802Z,19.7
2024-05-09T11:10:35.883Z,19.7
2024-05-09T11:12:35.839Z,19.8
2024-05-09T11:13:35.733Z,19.9
2024-05-09T11:14:35.764Z,19.8
2024-05-09T11:15:35.801Z,19.8
2024-05-09T11:16:35.791Z,19.8
2024-05-09T11:17:36.053Z,19.9
2024-05-09T11:19:35.835Z,19.8
2024-05-09T11:20:35.988Z,19.9
2024-05-09T11:21:35.820Z,19.9
2024-05-09T11:22:35.797Z,19.8
2024-05-09T11:23:35.756Z,19.8
2024-05-09T11:24:35.833Z,19.9
2024-05-09T11:25:35.757Z,19.9
2024-05-09T11:26:35.891Z,19.9
2024-05-09T11:28:35.849Z,19.8
2024-05-09T11:29:35.755Z,19.9
2024-05-09T11:30:35.853Z,20
2024-05-09T11:31:35.929Z,19.9
2024-05-09T11:32:35.980Z,19.8
2024-05-09T11:33:35.918Z,19.8
2024-05-09T11:35:35.751Z,19.9
2024-05-09T11:36:35.867Z,19.8
2024-05-09T11:38:35.745Z,19.9
2024-05-09T11:39:35.809Z,19.8
2024-05-09T11:40:35.826Z,19.9
2024-05-09T11:41:35.853Z,19.9
2024-05-09T11:42:35.752Z,19.9
2024-05-09T11:43:35.772Z,19.9
2024-05-09T11:45:35.782Z,19.9
2024-05-09T11:46:35.808Z,19.9
2024-05-09T11:47:35.875Z,19.9
2024-05-09T11:49:35.878Z,20
2024-05-09T11:50:36.382Z,20
2024-05-09T11:52:35.778Z,20
2024-05-09T11:54:35.816Z,20.1
2024-05-09T11:55:35.821Z,20
2024-05-09T11:56:35.815Z,20
2024-05-09T11:57:35.830Z,20
2024-05-09T11:58:35.817Z,20
2024-05-09T12:00:37.485Z,20
2024-05-09T12:01:35.872Z,20
2024-05-09T12:03:35.833Z,20.1
2024-05-09T12:05:35.919Z,20.2
2024-05-09T12:06:35.871Z,20.1
2024-05-09T12:08:35.764Z,20
2024-05-09T12:09:35.877Z,20
2024-05-09T12:10:36.873Z,20.1
2024-05-09T12:11:35.840Z,20.1
2024-05-09T12:12:37.226Z,20.1
2024-05-09T12:13:35.804Z,20.2
2024-05-09T12:14:35.771Z,20.1
2024-05-09T12:15:36.238Z,20.2
2024-05-09T12:17:35.829Z,20.1
2024-05-09T12:18:35.860Z,20.1
2024-05-09T12:20:38.796Z,20.2
2024-05-09T12:21:35.844Z,20.2
2024-05-09T12:22:35.830Z,20.2
2024-05-09T12:23:35.795Z,20.2
2024-05-09T12:24:35.837Z,20.2
2024-05-09T12:25:35.771Z,20.2
2024-05-09T12:26:35.836Z,20.2
2024-05-09T12:27:35.869Z,20.3
2024-05-09T12:28:35.786Z,20.3
2024-05-09T12:30:39.109Z,20.3
2024-05-09T12:32:35.925Z,20.5
2024-05-09T12:33:35.848Z,20.4
2024-05-09T12:34:35.854Z,20.4
2024-05-09T12:36:35.847Z,20.3
2024-05-09T12:37:35.777Z,20.4
2024-05-09T12:38:35.809Z,20.4
2024-05-09T12:39:35.844Z,20.4
2024-05-09T12:40:38.235Z,20.4
2024-05-09T12:41:35.783Z,20.5
2024-05-09T12:42:35.853Z,20.5
2024-05-09T12:44:35.780Z,20.5
2024-05-09T12:45:36.041Z,20.6
2024-05-09T12:46:35.859Z,20.6
2024-05-09T12:47:35.894Z,20.5
2024-05-09T12:48:35.991Z,20.4
2024-05-09T12:50:35.981Z,20.3
2024-05-09T12:52:35.832Z,20.4
2024-05-09T12:53:35.809Z,20.5
2024-05-09T12:54:35.886Z,20.5
2024-05-09T12:55:44.080Z,20.5
2024-05-09T12:57:35.838Z,20.5
2024-05-09T12:58:35.854Z,20.5
2024-05-09T12:59:35.795Z,20.5
2024-05-09T13:00:36.191Z,20.4
2024-05-09T13:02:35.949Z,20.4
2024-05-09T13:03:36.003Z,20.5
2024-05-09T13:04:35.972Z,20.5
2024-05-09T13:05:35.902Z,20.5
2024-05-09T13:06:35.864Z,20.5
2024-05-09T13:07:35.806Z,20.5
2024-05-09T13:08:35.821Z,20.5
2024-05-09T13:10:36.041Z,20.5
2024-05-09T13:11:35.858Z,20.8
2024-05-09T13:12:35.872Z,20.6
2024-05-09T13:13:35.845Z,20.6
2024-05-09T13:14:35.813Z,20.6
2024-05-09T13:15:35.821Z,20.6
2024-05-09T13:17:35.862Z,20.6
2024-05-09T13:18:36.005Z,20.8
2024-05-09T13:19:35.859Z,20.7
2024-05-09T13:21:35.869Z,20.6
2024-05-09T13:23:35.850Z,20.6
2024-05-09T13:24:35.899Z,20.6
2024-05-09T13:25:35.926Z,20.6
2024-05-09T13:26:35.842Z,21
2024-05-09T13:27:35.919Z,20.9
2024-05-09T13:29:35.867Z,20.8
2024-05-09T13:30:40.174Z,20.8
2024-05-09T13:31:35.879Z,20.8
2024-05-09T13:32:35.920Z,20.8
2024-05-09T13:34:35.865Z,20.8
2024-05-09T13:35:36.341Z,20.7
2024-05-09T13:36:35.909Z,20.8
2024-05-09T13:37:35.824Z,20.8
2024-05-09T13:38:35.834Z,20.8
2024-05-09T13:39:35.854Z,20.7
2024-05-09T13:40:36.659Z,21.1
2024-05-09T13:41:35.853Z,20.9
2024-05-09T13:42:35.868Z,20.7
2024-05-09T13:43:35.864Z,20.7
2024-05-09T13:44:35.849Z,20.7
2024-05-09T13:45:35.896Z,21
2024-05-09T13:46:35.820Z,22.4
2024-05-09T13:48:35.959Z,23.6
2024-05-09T13:49:35.959Z,24.1
2024-05-09T13:50:36.965Z,24.2
2024-05-09T13:51:35.888Z,24.2
2024-05-09T13:52:35.834Z,24.2
2024-05-09T13:53:35.840Z,24.3
2024-05-09T13:55:35.869Z,24
2024-05-09T13:56:35.849Z,23.9
2024-05-09T13:58:35.845Z,23.6
2024-05-09T13:59:35.825Z,23.4
2024-05-09T14:01:35.919Z,23.2
2024-05-09T14:02:36.091Z,23.1
2024-05-09T14:03:36.016Z,22.9
2024-05-09T14:04:35.973Z,22.9
2024-05-09T14:05:36.066Z,22.8
2024-05-09T14:06:35.903Z,23
2024-05-09T14:07:35.831Z,22.8
2024-05-09T14:08:35.892Z,22.5
2024-05-09T14:09:36.015Z,22.4
2024-05-09T14:10:35.922Z,22.3
2024-05-09T14:11:35.956Z,22.2
2024-05-09T14:12:35.930Z,22
2024-05-09T14:14:35.889Z,21.8
2024-05-09T14:15:35.880Z,21.7
2024-05-09T14:16:35.919Z,21.6
2024-05-09T14:17:35.951Z,21.6
2024-05-09T14:18:36.038Z,21.7
2024-05-09T14:19:35.864Z,21.7
2024-05-09T14:21:35.909Z,21.6
2024-05-09T14:22:35.842Z,21.5
2024-05-09T14:23:35.840Z,21.6
2024-05-09T14:24:35.972Z,21.4
2024-05-09T14:26:35.849Z,21.2
2024-05-09T14:27:35.907Z,21.3
2024-05-09T14:28:35.957Z,21.3
2024-05-09T14:29:35.824Z,21.3
2024-05-09T14:30:37.940Z,21.3
2024-05-09T14:32:35.987Z,21.2
2024-05-09T14:33:36.065Z,21.1
2024-05-09T14:35:35.924Z,21.3
2024-05-09T14:36:35.901Z,21.3
2024-05-09T14:37:38.609Z,21.3
2024-05-09T14:38:35.859Z,21.4
2024-05-09T14:39:35.901Z,21.4
2024-05-09T14:41:35.867Z,21.5
2024-05-09T14:42:35.876Z,21.4
2024-05-09T14:43:35.879Z,21.4
2024-05-09T14:44:35.854Z,21.5
2024-05-09T14:45:36.020Z,21.5
2024-05-09T14:46:35.926Z,21.5
2024-05-09T14:48:35.938Z,21.5
2024-05-09T14:49:35.887Z,21.5
2024-05-09T14:50:38.969Z,21.6
2024-05-09T14:51:35.954Z,21.7
2024-05-09T14:52:35.904Z,21.6
2024-05-09T14:53:35.854Z,21.6
2024-05-09T14:54:35.964Z,21.6
2024-05-09T14:55:36.921Z,21.6
2024-05-09T14:56:35.858Z,21.6
2024-05-09T14:57:35.948Z,21.6
2024-05-09T14:58:35.845Z,21.6
2024-05-09T14:59:35.915Z,21.6
2024-05-09T15:00:37.329Z,21.6
2024-05-09T15:01:36.044Z,21.7
2024-05-09T15:02:35.937Z,21.6
2024-05-09T15:04:35.962Z,21.6
2024-05-09T15:05:35.970Z,21.6
2024-05-09T15:06:35.997Z,21.6
2024-05-09T15:07:35.868Z,21.5
2024-05-09T15:08:35.892Z,21.4
2024-05-09T15:10:37.110Z,21.6
2024-05-09T15:11:35.918Z,21.5
2024-05-09T15:13:35.908Z,21.6
2024-05-09T15:14:35.876Z,21.6
2024-05-09T15:16:35.895Z,21.7
2024-05-09T15:17:36.012Z,21.7
2024-05-09T15:18:36.039Z,21.6
2024-05-09T15:20:37.330Z,21.8
2024-05-09T15:21:35.914Z,21.9
2024-05-09T15:22:35.893Z,21.8
2024-05-09T15:23:35.936Z,21.7
2024-05-09T15:25:36.547Z,21.7
2024-05-09T15:27:35.931Z,21.6
2024-05-09T15:28:35.895Z,21.6
2024-05-09T15:29:35.859Z,21.6
2024-05-09T15:30:36.468Z,21.5
2024-05-09T15:31:35.909Z,21.6
2024-05-09T15:32:36.016Z,21.7
2024-05-09T15:33:35.982Z,21.6
2024-05-09T15:34:35.961Z,21.5
2024-05-09T15:35:36.292Z,21.6
2024-05-09T15:36:35.932Z,21.5
2024-05-09T15:37:35.880Z,21.4
2024-05-09T15:38:35.884Z,21.4
2024-05-09T15:39:35.891Z,21.5
2024-05-09T15:40:39.873Z,21.6
2024-05-09T15:41:35.890Z,21.6
2024-05-09T15:42:35.919Z,21.5
2024-05-09T15:44:35.949Z,21.4
2024-05-09T15:45:36.083Z,21.5
2024-05-09T15:47:35.974Z,21.4
2024-05-09T15:48:36.018Z,21.3
2024-05-09T15:49:36.073Z,21.3
2024-05-09T15:50:40.019Z,21.3
2024-05-09T15:51:35.937Z,21.3
2024-05-09T15:52:35.935Z,21.2
2024-05-09T15:54:35.913Z,21.3
2024-05-09T15:55:36.177Z,21.2
2024-05-09T15:56:35.893Z,21.3
2024-05-09T15:57:35.958Z,21.3
2024-05-09T15:59:35.894Z,21.3
2024-05-09T16:00:39.875Z,21.2
2024-05-09T16:01:35.955Z,21.2
2024-05-09T16:03:35.994Z,21.2
2024-05-09T16:05:36.239Z,21.1
2024-05-09T16:08:35.886Z,21.2
2024-05-09T16:09:35.985Z,21.1
2024-05-09T16:10:36.163Z,21.1
2024-05-09T16:12:35.976Z,21
2024-05-09T16:13:35.910Z,21.1
2024-05-09T16:14:35.898Z,21.1
2024-05-09T16:17:39.965Z,21.1
2024-05-09T16:18:35.952Z,21.1
2024-05-09T16:19:35.900Z,21.1
2024-05-09T16:21:35.942Z,21
2024-05-09T16:22:35.882Z,21